sensor_id;sensor_type;location;lat;lon;timestamp;pressure;altitude;pressure_sealevel;temperature;humidity
15529;BME280;7866;52.280;9.500;2023-02-19T00:01:09;100202.56;;;9.77;95.62
15529;BME280;7866;52.280;9.500;2023-02-19T00:06:10;100194.91;;;9.82;95.24
15529;BME280;7866;52.280;9.500;2023-02-19T00:11:14;100200.09;;;9.84;95.47
15529;BME280;7866;52.280;9.500;2023-02-19T00:16:20;100178.50;;;9.77;95.09
15529;BME280;7866;52.280;9.500;2023-02-19T00:21:22;100176.69;;;9.70;97.82
15529;BME280;7866;52.280;9.500;2023-02-19T00:26:24;100185.69;;;9.69;98.13
15529;BME280;7866;52.280;9.500;2023-02-19T00:31:29;100184.88;;;9.68;98.22
15529;BME280;7866;52.280;9.500;2023-02-19T00:36:33;100154.31;;;9.71;99.37
15529;BME280;7866;52.280;9.500;2023-02-19T00:41:35;100145.44;;;9.70;99.82
15529;BME280;7866;52.280;9.500;2023-02-19T00:46:40;100126.72;;;9.70;99.41
15529;BME280;7866;52.280;9.500;2023-02-19T00:51:42;100121.88;;;9.74;99.53
15529;BME280;7866;52.280;9.500;2023-02-19T00:56:44;100122.22;;;9.71;99.44
15529;BME280;7866;52.280;9.500;2023-02-19T01:01:47;100122.53;;;9.76;99.97
15529;BME280;7866;52.280;9.500;2023-02-19T01:06:48;100128.03;;;9.82;99.68
15529;BME280;7866;52.280;9.500;2023-02-19T01:11:50;100121.38;;;9.78;99.98
15529;BME280;7866;52.280;9.500;2023-02-19T01:16:53;100131.88;;;9.80;99.69
15529;BME280;7866;52.280;9.500;2023-02-19T01:21:55;100141.25;;;9.84;99.58
15529;BME280;7866;52.280;9.500;2023-02-19T01:26:56;100134.56;;;9.80;100.00
15529;BME280;7866;52.280;9.500;2023-02-19T01:31:59;100138.41;;;9.77;100.00
15529;BME280;7866;52.280;9.500;2023-02-19T01:37:01;100147.09;;;9.71;100.00
15529;BME280;7866;52.280;9.500;2023-02-19T01:42:04;100157.63;;;9.48;99.37
15529;BME280;7866;52.280;9.500;2023-02-19T01:47:07;100152.59;;;9.29;99.07
15529;BME280;7866;52.280;9.500;2023-02-19T01:52:14;100121.72;;;9.18;98.76
15529;BME280;7866;52.280;9.500;2023-02-19T01:57:21;100111.69;;;9.20;99.05
15529;BME280;7866;52.280;9.500;2023-02-19T02:02:25;100109.34;;;9.58;100.00
15529;BME280;7866;52.280;9.500;2023-02-19T02:07:27;100093.13;;;9.68;100.00
15529;BME280;7866;52.280;9.500;2023-02-19T02:12:47;100100.97;;;9.69;100.00
15529;BME280;7866;52.280;9.500;2023-02-19T02:17:53;100095.97;;;9.66;100.00
15529;BME280;7866;52.280;9.500;2023-02-19T02:23:00;100095.63;;;9.69;100.00
15529;BME280;7866;52.280;9.500;2023-02-19T02:28:17;100096.63;;;9.68;100.00
15529;BME280;7866;52.280;9.500;2023-02-19T02:33:31;100104.50;;;9.70;100.00
15529;BME280;7866;52.280;9.500;2023-02-19T02:38:36;100103.16;;;9.74;100.00
15529;BME280;7866;52.280;9.500;2023-02-19T02:43:39;100088.28;;;9.71;100.00
15529;BME280;7866;52.280;9.500;2023-02-19T02:48:44;100091.13;;;9.70;100.00
15529;BME280;7866;52.280;9.500;2023-02-19T02:53:55;100094.63;;;9.78;99.99
15529;BME280;7866;52.280;9.500;2023-02-19T02:59:18;100100.31;;;9.75;98.78
15529;BME280;7866;52.280;9.500;2023-02-19T03:04:29;100096.94;;;9.73;99.45
15529;BME280;7866;52.280;9.500;2023-02-19T03:09:36;100103.81;;;9.76;99.23
15529;BME280;7866;52.280;9.500;2023-02-19T03:20:40;100108.97;;;9.77;99.54
15529;BME280;7866;52.280;9.500;2023-02-19T03:25:45;100101.81;;;9.78;98.63
15529;BME280;7866;52.280;9.500;2023-02-19T03:31:07;100114.31;;;9.77;99.20
15529;BME280;7866;52.280;9.500;2023-02-19T03:36:12;100115.34;;;9.76;99.86
15529;BME280;7866;52.280;9.500;2023-02-19T03:41:22;100123.53;;;9.75;100.00
15529;BME280;7866;52.280;9.500;2023-02-19T03:46:33;100118.84;;;9.77;100.00
15529;BME280;7866;52.280;9.500;2023-02-19T03:51:41;100120.53;;;9.78;100.00
15529;BME280;7866;52.280;9.500;2023-02-19T03:56:48;100124.34;;;9.83;99.62
15529;BME280;7866;52.280;9.500;2023-02-19T04:01:54;100134.56;;;9.80;100.00
15529;BME280;7866;52.280;9.500;2023-02-19T04:07:00;100167.00;;;8.77;97.84
15529;BME280;7866;52.280;9.500;2023-02-19T04:12:02;100155.16;;;8.37;99.33
15529;BME280;7866;52.280;9.500;2023-02-19T04:17:08;100192.25;;;8.23;100.00
15529;BME280;7866;52.280;9.500;2023-02-19T04:22:15;100192.16;;;7.62;100.00
15529;BME280;7866;52.280;9.500;2023-02-19T04:27:17;100229.78;;;7.59;100.00
15529;BME280;7866;52.280;9.500;2023-02-19T04:32:19;100235.25;;;7.58;100.00
15529;BME280;7866;52.280;9.500;2023-02-19T04:37:22;100255.19;;;7.54;100.00
15529;BME280;7866;52.280;9.500;2023-02-19T04:42:24;100253.91;;;7.40;100.00
15529;BME280;7866;52.280;9.500;2023-02-19T04:47:25;100261.25;;;7.28;100.00
15529;BME280;7866;52.280;9.500;2023-02-19T04:52:28;100273.94;;;6.89;100.00
15529;BME280;7866;52.280;9.500;2023-02-19T04:57:30;100290.19;;;6.96;100.00
15529;BME280;7866;52.280;9.500;2023-02-19T05:02:31;100319.91;;;6.91;100.00
15529;BME280;7866;52.280;9.500;2023-02-19T05:07:34;100345.84;;;6.79;100.00
15529;BME280;7866;52.280;9.500;2023-02-19T05:12:36;100348.84;;;7.04;100.00
15529;BME280;7866;52.280;9.500;2023-02-19T05:17:38;100344.75;;;7.09;100.00
15529;BME280;7866;52.280;9.500;2023-02-19T05:22:41;100341.94;;;6.74;100.00
15529;BME280;7866;52.280;9.500;2023-02-19T05:27:42;100352.56;;;6.83;100.00
15529;BME280;7866;52.280;9.500;2023-02-19T05:32:44;100355.47;;;7.00;100.00
15529;BME280;7866;52.280;9.500;2023-02-19T05:37:47;100369.38;;;6.74;100.00
15529;BME280;7866;52.280;9.500;2023-02-19T05:42:48;100383.59;;;6.55;100.00
15529;BME280;7866;52.280;9.500;2023-02-19T05:47:50;100388.22;;;6.34;100.00
15529;BME280;7866;52.280;9.500;2023-02-19T05:52:53;100389.59;;;6.38;100.00
15529;BME280;7866;52.280;9.500;2023-02-19T05:57:55;100411.31;;;6.53;100.00
15529;BME280;7866;52.280;9.500;2023-02-19T06:02:56;100424.47;;;6.54;100.00
15529;BME280;7866;52.280;9.500;2023-02-19T06:07:59;100431.59;;;6.63;100.00
15529;BME280;7866;52.280;9.500;2023-02-19T06:13:01;100445.63;;;6.56;100.00
15529;BME280;7866;52.280;9.500;2023-02-19T06:18:03;100449.25;;;6.64;100.00
15529;BME280;7866;52.280;9.500;2023-02-19T06:23:06;100461.56;;;6.46;100.00
15529;BME280;7866;52.280;9.500;2023-02-19T06:28:07;100471.00;;;5.90;100.00
15529;BME280;7866;52.280;9.500;2023-02-19T06:33:09;100485.88;;;6.03;100.00
15529;BME280;7866;52.280;9.500;2023-02-19T06:38:12;100494.81;;;5.92;100.00
15529;BME280;7866;52.280;9.500;2023-02-19T06:43:14;100497.63;;;6.00;100.00
15529;BME280;7866;52.280;9.500;2023-02-19T06:48:16;100526.72;;;5.71;100.00
15529;BME280;7866;52.280;9.500;2023-02-19T06:53:19;100541.59;;;5.53;100.00
15529;BME280;7866;52.280;9.500;2023-02-19T06:58:20;100563.31;;;5.37;100.00
15529;BME280;7866;52.280;9.500;2023-02-19T07:03:22;100583.38;;;5.09;100.00
15529;BME280;7866;52.280;9.500;2023-02-19T07:08:26;100597.38;;;5.11;100.00
15529;BME280;7866;52.280;9.500;2023-02-19T07:13:28;100623.19;;;5.09;100.00
15529;BME280;7866;52.280;9.500;2023-02-19T07:18:30;100648.84;;;4.87;100.00
15529;BME280;7866;52.280;9.500;2023-02-19T07:23:33;100667.44;;;4.65;100.00
15529;BME280;7866;52.280;9.500;2023-02-19T07:28:35;100671.19;;;4.62;100.00
15529;BME280;7866;52.280;9.500;2023-02-19T07:33:37;100673.56;;;4.88;100.00
15529;BME280;7866;52.280;9.500;2023-02-19T07:38:40;100698.91;;;4.81;100.00
15529;BME280;7866;52.280;9.500;2023-02-19T07:43:41;100698.69;;;4.61;100.00
15529;BME280;7866;52.280;9.500;2023-02-19T07:48:43;100715.28;;;4.97;100.00
15529;BME280;7866;52.280;9.500;2023-02-19T07:53:47;100721.41;;;4.98;100.00
15529;BME280;7866;52.280;9.500;2023-02-19T07:58:50;100732.00;;;5.20;100.00
15529;BME280;7866;52.280;9.500;2023-02-19T08:03:52;100751.81;;;5.16;100.00
15529;BME280;7866;52.280;9.500;2023-02-19T08:08:55;100752.88;;;5.25;98.94
15529;BME280;7866;52.280;9.500;2023-02-19T08:13:57;100753.75;;;5.46;99.27
15529;BME280;7866;52.280;9.500;2023-02-19T08:18:58;100755.69;;;5.55;98.24
15529;BME280;7866;52.280;9.500;2023-02-19T08:24:01;100773.41;;;5.87;97.73
15529;BME280;7866;52.280;9.500;2023-02-19T08:29:03;100778.22;;;5.93;97.04
15529;BME280;7866;52.280;9.500;2023-02-19T08:34:05;100780.44;;;5.56;96.17
15529;BME280;7866;52.280;9.500;2023-02-19T08:39:08;100772.88;;;5.29;95.72
15529;BME280;7866;52.280;9.500;2023-02-19T08:44:10;100774.16;;;5.46;96.62
15529;BME280;7866;52.280;9.500;2023-02-19T08:49:11;100779.91;;;5.62;98.04
15529;BME280;7866;52.280;9.500;2023-02-19T08:54:14;100784.91;;;5.55;95.62
15529;BME280;7866;52.280;9.500;2023-02-19T08:59:16;100785.97;;;5.53;95.03
15529;BME280;7866;52.280;9.500;2023-02-19T09:04:19;100785.75;;;5.56;94.51
15529;BME280;7866;52.280;9.500;2023-02-19T09:09:22;100797.28;;;5.98;95.93
15529;BME280;7866;52.280;9.500;2023-02-19T09:14:24;100821.31;;;6.29;95.15
15529;BME280;7866;52.280;9.500;2023-02-19T09:19:25;100838.25;;;6.28;94.82
15529;BME280;7866;52.280;9.500;2023-02-19T09:24:29;100829.75;;;6.34;93.82
15529;BME280;7866;52.280;9.500;2023-02-19T09:29:30;100844.28;;;6.30;92.14
15529;BME280;7866;52.280;9.500;2023-02-19T09:34:33;100844.91;;;6.22;92.06
15529;BME280;7866;52.280;9.500;2023-02-19T09:39:37;100867.31;;;6.40;92.33
15529;BME280;7866;52.280;9.500;2023-02-19T09:44:40;100865.41;;;6.43;90.15
15529;BME280;7866;52.280;9.500;2023-02-19T09:49:45;100860.38;;;6.49;90.69
15529;BME280;7866;52.280;9.500;2023-02-19T09:54:53;100872.78;;;6.39;89.37
15529;BME280;7866;52.280;9.500;2023-02-19T10:00:02;100898.41;;;6.40;89.00
15529;BME280;7866;52.280;9.500;2023-02-19T10:05:10;100916.34;;;6.80;89.75
15529;BME280;7866;52.280;9.500;2023-02-19T10:10:23;100928.16;;;6.87;89.34
15529;BME280;7866;52.280;9.500;2023-02-19T10:15:30;100931.94;;;7.15;89.12
15529;BME280;7866;52.280;9.500;2023-02-19T10:20:32;100943.44;;;7.15;88.42
15529;BME280;7866;52.280;9.500;2023-02-19T10:25:40;100965.53;;;7.27;86.82
15529;BME280;7866;52.280;9.500;2023-02-19T10:30:44;100971.91;;;7.15;84.66
15529;BME280;7866;52.280;9.500;2023-02-19T10:35:54;100987.31;;;6.26;84.67
15529;BME280;7866;52.280;9.500;2023-02-19T10:41:01;100986.31;;;7.12;86.34
15529;BME280;7866;52.280;9.500;2023-02-19T10:46:06;101000.38;;;7.14;86.20
15529;BME280;7866;52.280;9.500;2023-02-19T10:51:10;101007.25;;;6.96;85.88
15529;BME280;7866;52.280;9.500;2023-02-19T10:56:24;100994.19;;;6.93;85.62
15529;BME280;7866;52.280;9.500;2023-02-19T11:01:26;100980.22;;;7.52;85.60
15529;BME280;7866;52.280;9.500;2023-02-19T11:06:28;100989.03;;;7.43;82.62
15529;BME280;7866;52.280;9.500;2023-02-19T11:11:33;100993.03;;;6.54;82.18
15529;BME280;7866;52.280;9.500;2023-02-19T11:16:38;101004.47;;;6.65;84.72
15529;BME280;7866;52.280;9.500;2023-02-19T11:21:40;101007.78;;;7.41;84.54
15529;BME280;7866;52.280;9.500;2023-02-19T11:26:43;101028.28;;;6.99;82.97
15529;BME280;7866;52.280;9.500;2023-02-19T11:31:45;101029.97;;;7.00;84.07
15529;BME280;7866;52.280;9.500;2023-02-19T11:36:53;101025.69;;;7.09;83.74
15529;BME280;7866;52.280;9.500;2023-02-19T11:42:25;101029.56;;;6.84;83.57
15529;BME280;7866;52.280;9.500;2023-02-19T11:53:22;101030.94;;;6.78;83.79
15529;BME280;7866;52.280;9.500;2023-02-19T12:04:19;101027.63;;;6.86;83.58
15529;BME280;7866;52.280;9.500;2023-02-19T12:09:35;101017.69;;;7.30;83.15
15529;BME280;7866;52.280;9.500;2023-02-19T12:15:00;101014.72;;;7.54;82.68
15529;BME280;7866;52.280;9.500;2023-02-19T12:20:14;101025.63;;;7.72;82.06
15529;BME280;7866;52.280;9.500;2023-02-19T12:25:29;101013.16;;;7.82;80.12
15529;BME280;7866;52.280;9.500;2023-02-19T12:36:10;101020.28;;;8.22;76.37
15529;BME280;7866;52.280;9.500;2023-02-19T12:41:19;101041.53;;;8.23;76.68
15529;BME280;7866;52.280;9.500;2023-02-19T12:46:31;101037.44;;;8.29;76.33
15529;BME280;7866;52.280;9.500;2023-02-19T12:51:39;101045.13;;;8.12;77.17
15529;BME280;7866;52.280;9.500;2023-02-19T12:56:47;101042.44;;;8.53;75.92
15529;BME280;7866;52.280;9.500;2023-02-19T13:01:55;101038.50;;;8.57;76.67
15529;BME280;7866;52.280;9.500;2023-02-19T13:07:03;101039.09;;;8.70;75.67
15529;BME280;7866;52.280;9.500;2023-02-19T13:12:11;101050.78;;;8.19;74.88
15529;BME280;7866;52.280;9.500;2023-02-19T13:17:19;101056.47;;;8.45;74.85
15529;BME280;7866;52.280;9.500;2023-02-19T13:22:33;101073.84;;;8.30;75.07
15529;BME280;7866;52.280;9.500;2023-02-19T13:28:05;101078.84;;;8.13;75.81
15529;BME280;7866;52.280;9.500;2023-02-19T13:33:19;101061.53;;;8.48;77.89
15529;BME280;7866;52.280;9.500;2023-02-19T13:38:25;101054.59;;;8.26;74.59
15529;BME280;7866;52.280;9.500;2023-02-19T13:43:29;101041.59;;;8.52;75.67
15529;BME280;7866;52.280;9.500;2023-02-19T13:48:35;101038.09;;;8.81;75.46
15529;BME280;7866;52.280;9.500;2023-02-19T13:53:57;101039.28;;;8.19;71.82
15529;BME280;7866;52.280;9.500;2023-02-19T13:59:12;101041.06;;;8.58;76.85
15529;BME280;7866;52.280;9.500;2023-02-19T14:04:18;101050.50;;;8.82;74.90
15529;BME280;7866;52.280;9.500;2023-02-19T14:09:44;101056.06;;;8.40;75.71
15529;BME280;7866;52.280;9.500;2023-02-19T14:14:47;101053.31;;;8.21;74.34
15529;BME280;7866;52.280;9.500;2023-02-19T14:19:51;101069.69;;;8.06;72.84
15529;BME280;7866;52.280;9.500;2023-02-19T14:24:56;101068.06;;;8.25;75.34
15529;BME280;7866;52.280;9.500;2023-02-19T14:29:58;101076.09;;;8.34;74.71
15529;BME280;7866;52.280;9.500;2023-02-19T14:35:00;101067.78;;;8.18;74.08
15529;BME280;7866;52.280;9.500;2023-02-19T14:40:04;101073.28;;;8.26;74.24
15529;BME280;7866;52.280;9.500;2023-02-19T14:45:07;101089.06;;;8.39;74.26
15529;BME280;7866;52.280;9.500;2023-02-19T14:50:12;101107.03;;;8.37;74.07
15529;BME280;7866;52.280;9.500;2023-02-19T14:55:22;101085.41;;;8.40;75.49
15529;BME280;7866;52.280;9.500;2023-02-19T15:00:27;101081.13;;;8.28;73.51
15529;BME280;7866;52.280;9.500;2023-02-19T15:05:30;101072.56;;;8.24;74.95
15529;BME280;7866;52.280;9.500;2023-02-19T15:10:34;101053.69;;;8.06;74.33
15529;BME280;7866;52.280;9.500;2023-02-19T15:15:38;101059.72;;;8.08;73.97
15529;BME280;7866;52.280;9.500;2023-02-19T15:20:44;101045.53;;;7.98;75.45
15529;BME280;7866;52.280;9.500;2023-02-19T15:25:47;101051.19;;;7.74;76.73
15529;BME280;7866;52.280;9.500;2023-02-19T15:30:50;101060.13;;;7.73;77.50
15529;BME280;7866;52.280;9.500;2023-02-19T15:35:57;101056.44;;;7.64;78.12
15529;BME280;7866;52.280;9.500;2023-02-19T15:41:01;101056.34;;;7.45;78.53
15529;BME280;7866;52.280;9.500;2023-02-19T15:46:06;101061.38;;;7.38;78.49
15529;BME280;7866;52.280;9.500;2023-02-19T15:51:14;101054.53;;;7.25;78.84
15529;BME280;7866;52.280;9.500;2023-02-19T15:56:21;101055.97;;;7.08;80.05
15529;BME280;7866;52.280;9.500;2023-02-19T16:01:28;101063.13;;;7.07;79.87
15529;BME280;7866;52.280;9.500;2023-02-19T16:06:49;101067.75;;;6.94;80.75
15529;BME280;7866;52.280;9.500;2023-02-19T16:11:54;101060.13;;;6.69;81.63
15529;BME280;7866;52.280;9.500;2023-02-19T16:17:03;101069.06;;;6.35;82.61
15529;BME280;7866;52.280;9.500;2023-02-19T16:22:08;101085.63;;;6.16;83.71
15529;BME280;7866;52.280;9.500;2023-02-19T16:27:24;101081.28;;;6.15;84.83
15529;BME280;7866;52.280;9.500;2023-02-19T16:32:27;101086.59;;;5.93;85.64
15529;BME280;7866;52.280;9.500;2023-02-19T16:37:34;101089.34;;;5.69;86.24
15529;BME280;7866;52.280;9.500;2023-02-19T16:43:22;101081.25;;;5.59;86.55
15529;BME280;7866;52.280;9.500;2023-02-19T16:48:24;101088.47;;;5.57;86.93
15529;BME280;7866;52.280;9.500;2023-02-19T16:53:26;101092.88;;;5.34;87.14
15529;BME280;7866;52.280;9.500;2023-02-19T16:58:30;101116.97;;;5.44;87.95
15529;BME280;7866;52.280;9.500;2023-02-19T17:03:31;101125.00;;;5.31;87.05
15529;BME280;7866;52.280;9.500;2023-02-19T17:08:34;101143.25;;;5.36;87.59
15529;BME280;7866;52.280;9.500;2023-02-19T17:13:38;101144.81;;;5.38;88.67
15529;BME280;7866;52.280;9.500;2023-02-19T17:18:39;101149.75;;;5.32;88.15
15529;BME280;7866;52.280;9.500;2023-02-19T17:23:41;101142.50;;;5.34;88.64
15529;BME280;7866;52.280;9.500;2023-02-19T17:28:45;101129.94;;;5.25;87.46
15529;BME280;7866;52.280;9.500;2023-02-19T17:33:47;101123.84;;;5.11;88.83
15529;BME280;7866;52.280;9.500;2023-02-19T17:38:49;101127.56;;;5.09;88.17
15529;BME280;7866;52.280;9.500;2023-02-19T17:43:52;101133.84;;;5.08;88.95
15529;BME280;7866;52.280;9.500;2023-02-19T17:48:54;101128.84;;;4.92;88.79
15529;BME280;7866;52.280;9.500;2023-02-19T17:53:59;101128.94;;;4.90;89.49
15529;BME280;7866;52.280;9.500;2023-02-19T17:59:02;101115.56;;;4.92;89.53
15529;BME280;7866;52.280;9.500;2023-02-19T18:04:04;101119.69;;;4.72;89.82
15529;BME280;7866;52.280;9.500;2023-02-19T18:09:05;101119.22;;;4.78;90.50
15529;BME280;7866;52.280;9.500;2023-02-19T18:14:08;101134.97;;;4.68;89.61
15529;BME280;7866;52.280;9.500;2023-02-19T18:19:10;101129.03;;;4.65;89.63
15529;BME280;7866;52.280;9.500;2023-02-19T18:24:12;101150.47;;;4.62;89.67
15529;BME280;7866;52.280;9.500;2023-02-19T18:29:15;101152.66;;;4.81;88.63
15529;BME280;7866;52.280;9.500;2023-02-19T18:34:18;101137.13;;;4.87;88.94
15529;BME280;7866;52.280;9.500;2023-02-19T18:39:20;101141.41;;;5.01;90.05
15529;BME280;7866;52.280;9.500;2023-02-19T18:44:24;101150.91;;;5.16;89.06
15529;BME280;7866;52.280;9.500;2023-02-19T18:49:25;101154.09;;;5.33;87.56
15529;BME280;7866;52.280;9.500;2023-02-19T18:54:29;101161.28;;;5.43;87.85
15529;BME280;7866;52.280;9.500;2023-02-19T18:59:33;101158.31;;;5.59;86.94
15529;BME280;7866;52.280;9.500;2023-02-19T19:04:36;101166.88;;;5.74;85.51
15529;BME280;7866;52.280;9.500;2023-02-19T19:09:37;101164.84;;;5.78;85.04
15529;BME280;7866;52.280;9.500;2023-02-19T19:14:40;101165.09;;;5.86;83.93
15529;BME280;7866;52.280;9.500;2023-02-19T19:19:42;101164.25;;;5.85;84.60
15529;BME280;7866;52.280;9.500;2023-02-19T19:24:44;101156.56;;;5.93;83.50
15529;BME280;7866;52.280;9.500;2023-02-19T19:29:47;101165.91;;;5.99;83.21
15529;BME280;7866;52.280;9.500;2023-02-19T19:34:49;101158.88;;;5.98;83.84
15529;BME280;7866;52.280;9.500;2023-02-19T19:39:50;101158.16;;;6.07;83.32
15529;BME280;7866;52.280;9.500;2023-02-19T19:44:53;101166.84;;;6.09;82.78
15529;BME280;7866;52.280;9.500;2023-02-19T19:49:56;101162.03;;;6.03;82.30
15529;BME280;7866;52.280;9.500;2023-02-19T19:54:57;101147.28;;;6.10;82.75
15529;BME280;7866;52.280;9.500;2023-02-19T20:00:01;101149.97;;;6.10;82.67
15529;BME280;7866;52.280;9.500;2023-02-19T20:05:04;101144.38;;;6.13;82.04
15529;BME280;7866;52.280;9.500;2023-02-19T20:10:06;101133.25;;;6.08;82.69
15529;BME280;7866;52.280;9.500;2023-02-19T20:15:12;101136.66;;;6.10;82.95
15529;BME280;7866;52.280;9.500;2023-02-19T20:20:15;101142.81;;;6.11;82.96
15529;BME280;7866;52.280;9.500;2023-02-19T20:25:17;101145.59;;;6.21;82.17
15529;BME280;7866;52.280;9.500;2023-02-19T20:30:22;101151.03;;;6.19;81.93
15529;BME280;7866;52.280;9.500;2023-02-19T20:35:24;101146.34;;;6.23;82.20
15529;BME280;7866;52.280;9.500;2023-02-19T20:40:27;101146.44;;;6.21;81.77
15529;BME280;7866;52.280;9.500;2023-02-19T20:45:32;101138.44;;;6.21;83.32
15529;BME280;7866;52.280;9.500;2023-02-19T20:50:33;101139.56;;;6.19;83.33
15529;BME280;7866;52.280;9.500;2023-02-19T20:55:35;101136.63;;;6.22;83.48
15529;BME280;7866;52.280;9.500;2023-02-19T21:00:38;101141.25;;;6.20;82.74
15529;BME280;7866;52.280;9.500;2023-02-19T21:05:39;101141.72;;;6.13;83.51
15529;BME280;7866;52.280;9.500;2023-02-19T21:10:43;101137.25;;;6.14;84.33
15529;BME280;7866;52.280;9.500;2023-02-19T21:15:46;101121.88;;;6.17;83.67
15529;BME280;7866;52.280;9.500;2023-02-19T21:20:48;101119.84;;;6.10;84.25
15529;BME280;7866;52.280;9.500;2023-02-19T21:25:49;101135.09;;;6.19;84.75
15529;BME280;7866;52.280;9.500;2023-02-19T21:30:52;101126.00;;;6.22;84.54
15529;BME280;7866;52.280;9.500;2023-02-19T21:35:54;101126.75;;;6.24;84.96
15529;BME280;7866;52.280;9.500;2023-02-19T21:40:56;101122.13;;;6.26;84.73
15529;BME280;7866;52.280;9.500;2023-02-19T21:45:59;101141.13;;;6.32;84.07
15529;BME280;7866;52.280;9.500;2023-02-19T21:51:02;101152.84;;;6.30;84.63
15529;BME280;7866;52.280;9.500;2023-02-19T21:56:04;101140.13;;;6.33;84.32
15529;BME280;7866;52.280;9.500;2023-02-19T22:01:07;101133.50;;;6.28;85.11
15529;BME280;7866;52.280;9.500;2023-02-19T22:06:09;101130.00;;;6.27;84.97
15529;BME280;7866;52.280;9.500;2023-02-19T22:11:10;101130.47;;;6.21;84.70
15529;BME280;7866;52.280;9.500;2023-02-19T22:16:14;101124.06;;;6.24;85.12
15529;BME280;7866;52.280;9.500;2023-02-19T22:21:16;101133.50;;;6.28;85.22
15529;BME280;7866;52.280;9.500;2023-02-19T22:26:20;101123.22;;;6.34;85.62
15529;BME280;7866;52.280;9.500;2023-02-19T22:31:24;101109.31;;;6.31;85.72
15529;BME280;7866;52.280;9.500;2023-02-19T22:36:27;101101.44;;;6.40;85.79
15529;BME280;7866;52.280;9.500;2023-02-19T22:41:30;101081.25;;;6.38;86.20
15529;BME280;7866;52.280;9.500;2023-02-19T22:46:33;101090.66;;;6.42;85.88
15529;BME280;7866;52.280;9.500;2023-02-19T22:51:34;101091.75;;;6.51;86.37
15529;BME280;7866;52.280;9.500;2023-02-19T22:56:36;101108.06;;;6.57;86.22
15529;BME280;7866;52.280;9.500;2023-02-19T23:01:39;101101.28;;;6.64;86.18
15529;BME280;7866;52.280;9.500;2023-02-19T23:06:42;101073.94;;;6.62;86.32
15529;BME280;7866;52.280;9.500;2023-02-19T23:11:44;101068.56;;;6.74;86.55
15529;BME280;7866;52.280;9.500;2023-02-19T23:16:48;101063.53;;;6.71;86.77
15529;BME280;7866;52.280;9.500;2023-02-19T23:21:49;101058.66;;;6.76;87.25
15529;BME280;7866;52.280;9.500;2023-02-19T23:26:52;101060.69;;;6.83;86.36
15529;BME280;7866;52.280;9.500;2023-02-19T23:31:55;101067.09;;;6.81;86.18
15529;BME280;7866;52.280;9.500;2023-02-19T23:36:57;101048.91;;;6.86;86.08
15529;BME280;7866;52.280;9.500;2023-02-19T23:41:59;101059.31;;;6.89;85.63
15529;BME280;7866;52.280;9.500;2023-02-19T23:47:02;101056.66;;;6.89;85.18
15529;BME280;7866;52.280;9.500;2023-02-19T23:52:04;101044.31;;;6.88;84.89
15529;BME280;7866;52.280;9.500;2023-02-19T23:57:05;101072.63;;;6.89;85.21
